Terminal Aerodrome Forecast
Issued by NWS

Current Version | Previous Version | Graphics & Text | Print | Product List | Glossary On
Versions: 1 2 3 4 5 6 7 8 9 10 11 12 13 14
000
FTUS41 KILN 171400 AAA
TAFLCK
TAF AMD
KLCK 171418Z 1714/1812 28013G20KT P6SM OVC022
     FM171700 28013KT P6SM OVC016
     FM180000 30008KT P6SM OVC016=

USA.gov is the U.S. government's official web portal to all federal, state and local government web resources and services.